createdAt,value
2023-01-17T00:00:50.259Z,7.00
2023-01-17T00:02:52.132Z,6.00
2023-01-17T00:04:53.800Z,5.00
2023-01-17T00:06:58.227Z,3.67
2023-01-17T00:09:02.565Z,5.67
2023-01-17T00:11:05.842Z,2.00
2023-01-17T00:13:07.856Z,3.00
2023-01-17T00:15:10.677Z,2.67
2023-01-17T00:17:12.329Z,3.00
2023-01-17T00:19:14.129Z,5.00
2023-01-17T00:21:15.889Z,3.00
2023-01-17T00:23:21.599Z,5.00
2023-01-17T00:25:26.380Z,2.33
2023-01-17T00:27:28.207Z,5.00
2023-01-17T00:29:30.091Z,5.33
2023-01-17T00:31:31.805Z,5.33
2023-01-17T00:33:34.073Z,4.33
2023-01-17T00:35:35.670Z,1.00
2023-01-17T00:37:37.410Z,6.00
2023-01-17T00:39:40.318Z,2.00
2023-01-17T00:41:42.131Z,5.00
2023-01-17T00:43:43.802Z,5.00
2023-01-17T00:45:46.531Z,2.33
2023-01-17T00:47:48.209Z,6.00
2023-01-17T00:49:50.770Z,5.00
2023-01-17T00:51:52.334Z,5.00
2023-01-17T00:53:53.903Z,5.00
2023-01-17T00:56:00.692Z,5.67
2023-01-17T00:58:06.303Z,3.67
2023-01-17T01:00:12.140Z,4.33
2023-01-17T01:02:14.015Z,6.33
2023-01-17T01:04:15.759Z,3.00
2023-01-17T01:06:18.937Z,1.00
2023-01-17T01:08:22.652Z,6.33
2023-01-17T01:10:24.345Z,5.33
2023-01-17T01:12:27.412Z,6.00
2023-01-17T01:14:31.022Z,6.00
2023-01-17T01:16:32.915Z,6.00
2023-01-17T01:18:34.647Z,3.00
2023-01-17T01:20:36.287Z,6.00
2023-01-17T01:22:37.882Z,5.00
2023-01-17T01:24:39.365Z,4.33
2023-01-17T01:26:40.855Z,5.67
2023-01-17T01:28:43.767Z,6.33
2023-01-17T01:30:45.406Z,5.00
2023-01-17T01:32:47.166Z,2.67
2023-01-17T01:34:48.707Z,6.00
2023-01-17T01:36:50.250Z,7.00
2023-01-17T01:38:55.926Z,7.00
2023-01-17T01:40:59.236Z,5.33
2023-01-17T01:43:02.480Z,6.00
2023-01-17T01:45:16.849Z,3.00
2023-01-17T01:47:26.971Z,6.00
2023-01-17T01:49:28.880Z,5.00
2023-01-17T01:51:35.378Z,7.00
2023-01-17T01:53:46.588Z,6.00
2023-01-17T01:55:51.264Z,3.00
2023-01-17T01:57:59.891Z,9.00
2023-01-17T02:00:08.239Z,7.00
2023-01-17T02:02:09.976Z,7.67
2023-01-17T02:04:13.050Z,5.00
2023-01-17T02:06:26.127Z,5.00
2023-01-17T02:08:28.164Z,5.33
2023-01-17T02:10:34.032Z,10.00
2023-01-17T02:12:36.021Z,6.00
2023-01-17T02:14:37.707Z,8.33
2023-01-17T02:17:08.220Z,7.00
2023-01-17T02:20:05.288Z,9.00
2023-01-17T02:22:31.850Z,4.33
2023-01-17T02:25:06.865Z,7.00
2023-01-17T02:27:21.504Z,5.00
2023-01-17T02:30:01.963Z,5.67
2023-01-17T02:32:10.371Z,7.00
2023-01-17T02:34:19.387Z,6.67
2023-01-17T02:36:27.437Z,4.67
2023-01-17T02:38:37.133Z,6.00
2023-01-17T02:40:43.047Z,6.00
2023-01-17T02:42:51.802Z,6.33
2023-01-17T02:44:53.357Z,7.67
2023-01-17T02:46:56.598Z,9.00
2023-01-17T02:48:59.833Z,8.00
2023-01-17T02:51:27.220Z,5.00
2023-01-17T02:53:43.818Z,5.67
2023-01-17T02:55:57.264Z,8.33
2023-01-17T02:58:10.035Z,7.00
2023-01-17T03:00:22.082Z,5.00
2023-01-17T03:02:35.617Z,7.67
2023-01-17T03:04:44.911Z,5.33
2023-01-17T03:06:51.904Z,6.00
2023-01-17T03:08:54.433Z,8.67
2023-01-17T03:10:58.006Z,9.00
2023-01-17T03:13:04.121Z,6.67
2023-01-17T03:15:09.892Z,5.33
2023-01-17T03:17:11.598Z,8.33
2023-01-17T03:19:13.299Z,8.67
2023-01-17T03:21:16.432Z,6.33
2023-01-17T03:23:18.170Z,3.67
2023-01-17T03:25:19.942Z,9.00
2023-01-17T03:27:21.579Z,8.00
2023-01-17T03:29:24.374Z,9.00
2023-01-17T03:31:27.543Z,7.67
2023-01-17T03:33:30.864Z,8.33
2023-01-17T03:35:32.665Z,7.00
2023-01-17T03:37:37.863Z,7.33
2023-01-17T03:39:41.361Z,7.67
2023-01-17T03:41:43.148Z,7.33
2023-01-17T03:43:45.771Z,6.33
2023-01-17T03:45:51.514Z,6.00
2023-01-17T03:47:53.203Z,8.33
2023-01-17T03:49:54.933Z,7.00
2023-01-17T03:51:56.651Z,7.33
2023-01-17T03:53:59.861Z,9.67
2023-01-17T03:56:01.654Z,7.00
2023-01-17T03:58:08.111Z,6.33
2023-01-17T04:00:11.071Z,5.00
2023-01-17T04:02:12.949Z,7.33
2023-01-17T04:04:14.613Z,9.33
2023-01-17T04:06:16.563Z,7.33
2023-01-17T04:08:18.222Z,8.33
2023-01-17T04:10:25.005Z,10.33
2023-01-17T04:12:26.776Z,9.00
2023-01-17T04:14:29.782Z,7.33
2023-01-17T04:16:38.553Z,6.33
2023-01-17T04:18:40.204Z,6.33
2023-01-17T04:20:42.000Z,10.00
2023-01-17T04:22:43.747Z,6.67
2023-01-17T04:24:47.235Z,8.33
2023-01-17T04:26:50.279Z,9.67
2023-01-17T04:28:51.840Z,8.67
2023-01-17T04:30:53.551Z,10.00
2023-01-17T04:32:55.412Z,9.33
2023-01-17T04:34:59.303Z,9.67
2023-01-17T04:37:02.244Z,5.00
2023-01-17T04:39:06.079Z,9.67
2023-01-17T04:41:09.664Z,10.00
2023-01-17T04:43:12.874Z,10.00
2023-01-17T04:45:16.469Z,7.33
2023-01-17T04:47:17.959Z,6.33
2023-01-17T04:49:19.515Z,9.67
2023-01-17T04:51:21.156Z,6.00
2023-01-17T04:53:22.756Z,9.00
2023-01-17T04:55:24.616Z,9.33
2023-01-17T04:57:26.148Z,7.33
2023-01-17T04:59:29.091Z,10.00
2023-01-17T05:01:30.757Z,11.33
2023-01-17T05:03:33.220Z,8.00
2023-01-17T05:05:34.788Z,7.33
2023-01-17T05:07:38.271Z,9.33
2023-01-17T05:09:40.251Z,8.67
2023-01-17T05:12:03.781Z,10.00
2023-01-17T05:14:05.426Z,6.67
2023-01-17T05:16:09.138Z,8.67
2023-01-17T05:18:12.769Z,8.67
2023-01-17T05:20:17.195Z,6.00
2023-01-17T05:22:18.940Z,9.00
2023-01-17T05:24:20.838Z,9.00
2023-01-17T05:26:22.454Z,8.00
2023-01-17T05:28:24.196Z,5.33
2023-01-17T05:30:27.358Z,6.00
2023-01-17T05:32:30.377Z,6.67
2023-01-17T05:34:33.519Z,5.00
2023-01-17T05:36:38.997Z,7.33
2023-01-17T05:38:41.913Z,6.67
2023-01-17T05:40:43.715Z,7.33
2023-01-17T05:42:47.919Z,7.33
2023-01-17T05:44:49.615Z,6.00
2023-01-17T15:34:09.722Z,1.00
2023-01-17T16:21:45.962Z,0.00
2023-01-17T16:35:15.029Z,0.00
2023-01-17T17:42:55.107Z,0.00
2023-01-17T18:04:44.818Z,0.00
2023-01-17T18:12:14.525Z,1.00
2023-01-17T18:14:26.743Z,0.33
2023-01-17T20:02:35.623Z,0.00
2023-01-17T20:13:12.151Z,0.00
